createdAt,value
2019-03-12T15:02:38.850Z,9.70
2019-03-12T15:05:09.591Z,9.60
2019-03-12T15:07:39.928Z,9.50
2019-03-12T15:10:10.879Z,9.60
2019-03-12T15:12:41.056Z,9.60
2019-03-12T15:15:11.090Z,9.60
2019-03-12T15:17:41.820Z,9.40
2019-03-12T15:20:14.738Z,9.40
2019-03-12T15:23:12.030Z,9.30
2019-03-12T15:25:43.991Z,9.20
2019-03-12T15:28:14.670Z,9.20
2019-03-12T15:30:48.062Z,9.10
2019-03-12T15:33:32.154Z,9.10
2019-03-12T15:36:24.566Z,9.00
2019-03-12T15:38:55.569Z,9.00
2019-03-12T15:41:26.447Z,9.10
2019-03-12T15:44:49.704Z,9.10
2019-03-12T15:50:44.273Z,8.90
2019-03-12T15:57:23.129Z,8.80
2019-03-12T16:03:51.204Z,8.80
2019-03-12T16:10:13.683Z,8.70
2019-03-12T16:22:42.470Z,8.30
2019-03-12T16:25:20.492Z,8.20
2019-03-12T16:27:50.890Z,8.20
2019-03-12T16:30:21.228Z,8.10
2019-03-12T16:36:08.650Z,8.10
2019-03-12T16:38:50.205Z,8.10
2019-03-12T16:42:08.817Z,8.10
2019-03-12T16:44:39.041Z,8.00
2019-03-12T16:47:09.262Z,7.90
2019-03-12T16:49:38.943Z,7.80
2019-03-12T16:52:09.037Z,7.70
2019-03-12T16:54:39.230Z,7.60
2019-03-12T16:57:10.051Z,7.50
2019-03-12T16:59:40.614Z,7.50
2019-03-12T17:02:11.340Z,7.30
2019-03-12T17:04:41.811Z,7.20
2019-03-12T17:07:11.790Z,7.20
2019-03-12T17:09:41.925Z,7.20
2019-03-12T17:12:12.812Z,7.20
2019-03-12T17:14:43.038Z,7.20
2019-03-12T17:17:13.139Z,7.20
2019-03-12T17:35:03.737Z,6.90
2019-03-12T17:38:24.817Z,6.80
2019-03-12T17:40:58.627Z,6.70
2019-03-12T17:44:43.441Z,6.70
2019-03-12T17:51:51.522Z,6.70
2019-03-12T17:54:21.929Z,6.60
2019-03-12T17:56:59.816Z,6.60
2019-03-12T17:59:30.581Z,6.70
2019-03-12T18:02:02.570Z,6.80
2019-03-12T18:04:33.647Z,6.80
2019-03-12T18:07:04.413Z,6.70
2019-03-12T18:09:34.505Z,6.70
2019-03-12T18:12:04.613Z,7.00
2019-03-12T18:14:35.267Z,7.00
2019-03-12T18:17:05.689Z,7.00
2019-03-12T18:19:39.432Z,7.00
2019-03-12T18:22:18.648Z,7.00
2019-03-12T18:24:48.876Z,7.00
2019-03-12T18:27:23.512Z,7.00
2019-03-12T18:30:09.229Z,7.00
2019-03-12T18:32:40.200Z,7.00
2019-03-12T18:35:10.042Z,7.00
2019-03-12T18:37:40.537Z,7.10
2019-03-12T18:40:12.984Z,7.10
2019-03-12T18:42:56.957Z,7.20
2019-03-12T18:45:27.292Z,7.20
2019-03-12T18:47:57.398Z,7.30
2019-03-12T18:50:28.083Z,7.20
2019-03-12T18:52:58.145Z,7.40
2019-03-12T18:56:15.096Z,7.40
2019-03-12T18:58:45.674Z,7.50
2019-03-12T19:01:16.822Z,7.50
2019-03-12T19:03:47.151Z,7.40
2019-03-12T19:06:17.553Z,7.30
2019-03-12T19:08:48.315Z,7.20
2019-03-12T19:11:20.150Z,7.10
2019-03-12T19:13:52.025Z,7.30
2019-03-12T19:16:21.347Z,7.20
2019-03-12T19:19:04.082Z,7.20
2019-03-12T19:21:37.284Z,7.20
2019-03-12T19:24:11.866Z,7.30
2019-03-12T19:26:55.731Z,7.40
2019-03-12T19:29:53.494Z,7.30
2019-03-12T19:32:44.448Z,7.20
2019-03-12T19:35:16.583Z,7.20
2019-03-12T19:37:47.080Z,7.20
2019-03-12T19:40:18.743Z,7.10
2019-03-12T19:42:49.554Z,7.00
2019-03-12T19:45:19.603Z,7.20
2019-03-12T19:47:50.010Z,7.20
2019-03-12T19:50:20.132Z,7.20
2019-03-12T19:52:50.662Z,7.30
2019-03-12T19:55:26.259Z,7.30
2019-03-12T19:57:57.263Z,7.40
2019-03-12T20:00:28.548Z,7.40
2019-03-12T20:03:10.241Z,7.40
2019-03-12T20:05:31.208Z,7.40
2019-03-12T20:08:01.754Z,7.40
2019-03-12T20:11:09.726Z,7.40
2019-03-12T20:14:21.239Z,7.30
2019-03-12T20:17:40.094Z,7.40
2019-03-12T20:21:07.903Z,7.50
2019-03-12T20:27:34.775Z,7.70
2019-03-12T20:30:47.642Z,7.90
2019-03-12T20:33:47.083Z,7.90
2019-03-12T20:37:04.018Z,7.90
2019-03-12T20:40:13.593Z,7.80
2019-03-12T20:43:22.955Z,7.80
2019-03-12T20:46:40.598Z,8.10
2019-03-12T20:50:09.688Z,8.20
2019-03-12T20:53:35.399Z,8.10
2019-03-12T20:56:45.259Z,7.90
2019-03-12T20:59:51.856Z,7.80
